createdAt,value
2023-04-10T00:00:39.266Z,5.77
2023-04-10T00:03:07.375Z,5.84
2023-04-10T00:05:35.486Z,5.87
2023-04-10T00:08:04.682Z,5.82
2023-04-10T00:10:33.288Z,5.83
2023-04-10T00:13:03.598Z,5.79
2023-04-10T00:15:31.810Z,5.65
2023-04-10T00:17:59.802Z,5.53
2023-04-10T00:20:28.265Z,5.46
2023-04-10T00:22:56.355Z,5.45
2023-04-10T00:25:24.380Z,5.49
2023-04-10T00:27:52.379Z,5.45
2023-04-10T00:30:22.239Z,5.44
2023-04-10T00:32:50.211Z,5.49
2023-04-10T00:35:18.431Z,5.44
2023-04-10T00:37:46.514Z,5.46
2023-04-10T00:40:14.734Z,5.36
2023-04-10T00:42:42.733Z,5.42
2023-04-10T00:45:12.128Z,5.55
2023-04-10T00:47:41.875Z,5.49
2023-04-10T00:50:10.994Z,5.59
2023-04-10T00:52:39.321Z,5.44
2023-04-10T00:55:09.175Z,5.30
2023-04-10T00:57:37.212Z,5.26
2023-04-10T01:00:06.778Z,5.21
2023-04-10T01:02:34.921Z,5.24
2023-04-10T01:05:04.743Z,5.35
2023-04-10T01:07:45.653Z,5.50
2023-04-10T01:10:25.925Z,5.36
2023-04-10T01:13:06.316Z,5.27
2023-04-10T01:15:47.538Z,5.25
2023-04-10T01:18:25.396Z,5.20
2023-04-10T01:20:55.523Z,5.16
2023-04-10T01:23:52.510Z,5.19
2023-04-10T01:26:40.671Z,5.27
2023-04-10T01:29:11.700Z,5.07
2023-04-10T01:31:47.717Z,5.10
2023-04-10T01:34:21.430Z,5.01
2023-04-10T01:36:56.385Z,4.99
2023-04-10T01:39:29.192Z,5.03
2023-04-10T01:42:01.171Z,5.00
2023-04-10T01:44:33.176Z,5.05
2023-04-10T01:47:11.672Z,5.07
2023-04-10T01:49:44.602Z,4.99
2023-04-10T01:52:15.246Z,4.97
2023-04-10T01:54:45.680Z,4.90
2023-04-10T01:57:15.109Z,4.96
2023-04-10T01:59:46.024Z,4.91
2023-04-10T02:02:14.141Z,4.77
2023-04-10T02:04:42.198Z,4.77
2023-04-10T02:07:17.884Z,4.76
2023-04-10T02:09:53.937Z,4.71
2023-04-10T02:12:30.864Z,4.79
2023-04-10T02:15:03.777Z,4.75
2023-04-10T02:17:34.299Z,4.79
2023-04-10T02:20:04.309Z,4.85
2023-04-10T02:22:32.725Z,4.93
2023-04-10T02:25:01.622Z,4.94
2023-04-10T02:27:33.613Z,4.87
2023-04-10T02:30:04.495Z,4.64
2023-04-10T02:32:33.250Z,4.69
2023-04-10T02:35:02.143Z,4.69
2023-04-10T02:37:30.597Z,4.70
2023-04-10T02:39:58.582Z,4.71
2023-04-10T02:42:27.128Z,4.62
2023-04-10T02:44:55.139Z,4.57
2023-04-10T02:47:24.534Z,4.55
2023-04-10T02:49:52.680Z,4.66
2023-04-10T02:52:20.622Z,4.65
2023-04-10T02:54:48.549Z,4.58
2023-04-10T02:57:17.466Z,4.53
2023-04-10T02:59:45.658Z,4.50
2023-04-10T03:02:13.598Z,4.33
2023-04-10T03:04:43.039Z,4.24
2023-04-10T03:07:11.143Z,4.28
2023-04-10T03:09:39.063Z,4.24
2023-04-10T03:12:07.044Z,4.11
2023-04-10T03:14:35.063Z,4.19
2023-04-10T03:17:03.021Z,4.20
2023-04-10T03:19:31.293Z,4.16
2023-04-10T03:22:00.717Z,4.06
2023-04-10T03:24:28.909Z,4.01
2023-04-10T03:26:57.689Z,3.96
2023-04-10T03:29:25.741Z,3.94
2023-04-10T03:31:53.648Z,3.97
2023-04-10T03:34:22.016Z,4.04
2023-04-10T03:36:50.002Z,3.95
2023-04-10T03:39:19.305Z,4.05
2023-04-10T03:41:47.310Z,4.06
2023-04-10T03:44:15.341Z,4.09
2023-04-10T03:46:43.291Z,4.15
2023-04-10T03:49:11.354Z,4.02
2023-04-10T03:51:39.391Z,4.07
2023-04-10T03:54:07.378Z,4.06
2023-04-10T03:56:36.637Z,3.93
2023-04-10T03:59:04.828Z,3.96
2023-04-10T04:01:33.164Z,3.77
2023-04-10T04:04:01.478Z,3.75
2023-04-10T04:06:29.835Z,3.63
2023-04-10T04:08:57.760Z,3.64
2023-04-10T04:11:25.770Z,3.64
2023-04-10T04:13:55.333Z,3.52
2023-04-10T04:16:23.635Z,3.59
2023-04-10T04:18:51.675Z,3.63
2023-04-10T04:21:19.689Z,3.56
2023-04-10T04:23:47.730Z,3.66
2023-04-10T04:26:15.622Z,3.68
2023-04-10T04:28:43.628Z,3.77
2023-04-10T04:31:12.948Z,3.84
2023-04-10T04:33:40.860Z,3.86
2023-04-10T04:36:09.510Z,3.90
2023-04-10T04:38:37.495Z,3.95
2023-04-10T04:41:05.828Z,3.98
2023-04-10T04:43:33.786Z,4.04
2023-04-10T04:46:01.841Z,4.13
2023-04-10T04:48:31.178Z,4.24
2023-04-10T04:50:59.118Z,4.22
2023-04-10T04:53:27.053Z,4.36
2023-04-10T04:55:54.931Z,4.41
2023-04-10T04:58:24.557Z,4.25
2023-04-10T05:00:52.799Z,4.53
2023-04-10T05:03:21.168Z,4.64
2023-04-10T05:05:50.643Z,4.64
2023-04-10T05:08:18.659Z,4.71
2023-04-10T05:10:46.711Z,4.71
2023-04-10T05:13:15.639Z,4.89
2023-04-10T05:15:43.633Z,4.93
2023-04-10T05:18:13.619Z,5.09
2023-04-10T05:20:41.656Z,5.30
2023-04-10T05:23:11.133Z,5.32
2023-04-10T05:25:39.063Z,5.40
2023-04-10T05:28:07.048Z,5.68
2023-04-10T05:30:35.003Z,5.65
2023-04-10T05:33:03.119Z,5.75
2023-04-10T05:35:31.240Z,5.68
2023-04-10T05:38:00.516Z,5.92
2023-04-10T05:40:30.314Z,6.28
2023-04-10T05:42:58.623Z,6.32
2023-04-10T05:45:28.556Z,6.26
2023-04-10T05:47:56.532Z,6.32
2023-04-10T05:50:24.521Z,6.52
2023-04-10T05:52:52.381Z,6.78
2023-04-10T05:55:20.322Z,6.72
2023-04-10T05:57:54.383Z,7.10
2023-04-10T06:00:22.426Z,7.12
2023-04-10T06:02:50.977Z,7.27
2023-04-10T06:05:19.381Z,7.21
2023-04-10T06:07:47.393Z,7.48
2023-04-10T06:10:15.452Z,7.54
2023-04-10T06:12:43.429Z,7.76
2023-04-10T06:15:13.090Z,7.79
2023-04-10T06:17:44.285Z,7.81
2023-04-10T06:20:13.582Z,7.88
2023-04-10T06:22:41.619Z,7.85
2023-04-10T06:25:10.797Z,7.78
2023-04-10T06:27:38.889Z,7.65
2023-04-10T06:30:09.265Z,7.73
2023-04-10T06:32:38.645Z,7.78
2023-04-10T06:35:07.410Z,7.98
2023-04-10T06:37:35.444Z,7.84
2023-04-10T06:40:06.871Z,7.83
2023-04-10T06:42:35.021Z,7.96
2023-04-10T06:45:04.272Z,8.33
2023-04-10T06:47:32.649Z,8.22
2023-04-10T06:50:02.032Z,8.26
2023-04-10T06:52:30.045Z,8.59
2023-04-10T06:54:58.057Z,8.32
2023-04-10T06:57:26.111Z,8.28
2023-04-10T06:59:53.971Z,8.41
2023-04-10T07:02:22.087Z,8.72
2023-04-10T07:04:51.773Z,8.93
2023-04-10T07:07:21.345Z,9.20
2023-04-10T07:09:49.491Z,9.17
2023-04-10T07:12:17.505Z,9.08
2023-04-10T07:14:45.371Z,9.42
2023-04-10T07:17:13.305Z,9.74
2023-04-10T07:19:41.249Z,9.65
2023-04-10T07:22:09.219Z,9.72
2023-04-10T07:24:38.521Z,9.75
2023-04-10T07:27:06.505Z,9.73
2023-04-10T07:29:34.483Z,9.97
2023-04-10T07:32:02.622Z,10.02
2023-04-10T07:34:32.782Z,10.00
2023-04-10T07:37:00.809Z,10.24
2023-04-10T07:39:28.798Z,10.47
2023-04-10T07:41:58.063Z,10.60
2023-04-10T07:44:28.657Z,10.43
2023-04-10T07:46:56.783Z,10.49
2023-04-10T07:49:24.846Z,10.57
2023-04-10T07:51:53.015Z,10.62
2023-04-10T07:54:21.284Z,10.78
2023-04-10T07:56:49.214Z,10.78
2023-04-10T07:59:23.498Z,10.94
2023-04-10T08:01:51.531Z,11.11
2023-04-10T08:04:19.693Z,11.25
2023-04-10T08:06:47.904Z,11.33
2023-04-10T08:09:16.014Z,11.40
2023-04-10T08:11:44.095Z,11.50
2023-04-10T08:14:13.435Z,11.55
2023-04-10T08:16:47.855Z,11.41
2023-04-10T08:19:15.889Z,11.43
2023-04-10T08:21:43.921Z,11.64
2023-04-10T08:24:11.996Z,11.85
2023-04-10T08:26:40.051Z,11.86
2023-04-10T08:29:08.098Z,12.20
2023-04-10T08:31:36.163Z,11.90
2023-04-10T08:34:05.642Z,12.16
2023-04-10T08:36:34.103Z,11.89
2023-04-10T08:39:02.179Z,12.10
2023-04-10T08:41:30.307Z,12.25
2023-04-10T08:43:58.749Z,12.51
2023-04-10T08:46:27.340Z,12.54
2023-04-10T08:49:02.783Z,12.74
2023-04-10T08:51:38.348Z,12.56
2023-04-10T08:54:12.050Z,12.83
2023-04-10T08:56:43.838Z,13.00
2023-04-10T08:59:12.072Z,13.15
2023-04-10T09:01:41.474Z,12.91
2023-04-10T09:04:12.365Z,13.02
2023-04-10T09:06:42.162Z,12.99
2023-04-10T09:09:10.480Z,13.20
2023-04-10T09:12:00.792Z,13.36
2023-04-10T09:14:31.904Z,13.44
2023-04-10T09:17:20.063Z,13.79
2023-04-10T09:19:50.509Z,13.44
2023-04-10T09:22:30.944Z,13.46
2023-04-10T09:25:00.932Z,13.25
2023-04-10T09:27:32.352Z,13.20
2023-04-10T09:30:00.703Z,13.38
2023-04-10T09:32:40.112Z,13.43
2023-04-10T09:35:09.617Z,13.71
2023-04-10T09:37:40.786Z,13.71
2023-04-10T09:40:46.834Z,13.40
2023-04-10T09:43:24.505Z,13.72
2023-04-10T09:45:54.814Z,13.83
2023-04-10T09:48:24.823Z,14.09
2023-04-10T09:50:52.898Z,14.07
2023-04-10T09:53:22.850Z,14.09
2023-04-10T09:55:52.495Z,13.98
2023-04-10T09:58:20.650Z,14.15
2023-04-10T10:00:50.591Z,14.31
2023-04-10T10:03:21.143Z,14.48
2023-04-10T10:05:52.528Z,14.64
2023-04-10T10:08:22.555Z,14.10
2023-04-10T10:10:55.614Z,14.14
2023-04-10T10:13:30.337Z,14.32
2023-04-10T10:16:09.920Z,14.66
2023-04-10T10:18:46.014Z,14.49
2023-04-10T10:21:15.950Z,14.46
2023-04-10T10:23:47.101Z,14.69
2023-04-10T10:26:17.268Z,14.95
2023-04-10T10:28:49.441Z,14.90
2023-04-10T10:31:19.879Z,14.76
2023-04-10T10:33:49.023Z,14.92
2023-04-10T10:36:19.093Z,15.04
2023-04-10T10:39:05.072Z,15.27
2023-04-10T10:41:47.915Z,15.34
2023-04-10T10:44:27.785Z,15.33
2023-04-10T10:47:11.076Z,15.49
2023-04-10T10:49:54.611Z,15.43
2023-04-10T10:52:43.944Z,15.46
2023-04-10T10:55:37.145Z,15.46
2023-04-10T10:58:08.301Z,15.32
2023-04-10T11:01:11.342Z,15.34
2023-04-10T11:03:39.916Z,15.42
2023-04-10T11:06:09.788Z,15.65
2023-04-10T11:08:42.609Z,15.47
2023-04-10T11:11:17.664Z,15.73
2023-04-10T11:14:18.881Z,15.69
2023-04-10T11:16:49.897Z,16.01
2023-04-10T11:19:23.484Z,15.99
2023-04-10T11:22:08.145Z,16.16
2023-04-10T11:25:00.617Z,15.95
2023-04-10T11:27:49.685Z,16.05
2023-04-10T11:30:35.743Z,16.12
2023-04-10T11:33:06.665Z,16.14
2023-04-10T11:35:35.426Z,15.96
2023-04-10T11:38:17.826Z,15.98
2023-04-10T11:41:02.857Z,16.09
2023-04-10T11:43:33.745Z,16.21
2023-04-10T11:46:08.621Z,16.50
2023-04-10T11:48:38.440Z,16.50
2023-04-10T11:51:11.250Z,16.33
2023-04-10T11:53:39.913Z,16.34
2023-04-10T11:56:18.180Z,16.36
2023-04-10T11:58:53.004Z,16.62
2023-04-10T12:01:23.709Z,16.67
2023-04-10T12:03:52.396Z,16.80
2023-04-10T12:06:22.404Z,16.76
2023-04-10T12:08:51.182Z,16.57
2023-04-10T12:11:21.425Z,16.46
2023-04-10T12:13:54.397Z,16.46
2023-04-10T12:16:23.099Z,16.63
2023-04-10T12:18:52.565Z,16.92
2023-04-10T12:21:23.864Z,16.94
2023-04-10T12:23:52.905Z,17.04
2023-04-10T12:26:22.740Z,16.91
2023-04-10T12:28:57.613Z,17.17
2023-04-10T12:31:30.748Z,16.77
2023-04-10T12:34:00.246Z,16.79
2023-04-10T12:36:30.490Z,16.98
2023-04-10T12:38:59.742Z,17.17
2023-04-10T12:41:40.110Z,17.49
2023-04-10T12:44:12.072Z,17.21
2023-04-10T12:46:41.293Z,17.48
2023-04-10T12:49:14.453Z,17.50
2023-04-10T12:51:51.503Z,17.45
2023-04-10T12:54:31.855Z,17.37
2023-04-10T12:57:00.704Z,17.02
2023-04-10T12:59:30.936Z,17.00
2023-04-10T13:01:59.222Z,17.16
2023-04-10T13:04:28.311Z,17.72
2023-04-10T13:06:56.472Z,17.06
2023-04-10T13:09:24.517Z,17.23
2023-04-10T13:11:52.944Z,16.81
2023-04-10T13:14:24.135Z,17.02
2023-04-10T13:16:53.606Z,17.04
2023-04-10T13:19:21.692Z,16.74
2023-04-10T13:21:50.670Z,17.10
2023-04-10T13:24:18.802Z,16.99
2023-04-10T13:26:47.357Z,16.81
2023-04-10T13:29:15.365Z,16.86
2023-04-10T13:31:43.400Z,16.89
2023-04-10T13:34:12.895Z,16.97
2023-04-10T13:36:41.070Z,17.20
2023-04-10T13:39:09.446Z,17.04
2023-04-10T13:41:37.504Z,16.95
2023-04-10T13:44:05.876Z,17.01
2023-04-10T13:46:33.939Z,17.13
2023-04-10T13:49:02.014Z,17.19
2023-04-10T13:51:31.626Z,17.28
2023-04-10T13:53:59.612Z,17.37
2023-04-10T13:56:27.783Z,17.09
2023-04-10T13:58:56.040Z,17.08
2023-04-10T14:01:24.461Z,16.98
2023-04-10T14:03:52.891Z,16.96
2023-04-10T14:06:34.693Z,16.94
2023-04-10T14:09:21.369Z,16.81
2023-04-10T14:11:49.402Z,16.82
2023-04-10T14:14:17.535Z,16.91
2023-04-10T14:16:45.577Z,17.09
2023-04-10T14:19:13.554Z,17.33
2023-04-10T14:21:44.404Z,17.37
2023-04-10T14:24:12.824Z,17.45
2023-04-10T14:26:40.864Z,17.33
2023-04-10T14:29:09.116Z,17.23
2023-04-10T14:31:44.127Z,17.24
2023-04-10T14:34:19.604Z,17.43
2023-04-10T14:36:49.090Z,17.29
2023-04-10T14:39:17.173Z,17.22
2023-04-10T14:41:45.246Z,17.30
2023-04-10T14:44:13.296Z,17.16
2023-04-10T14:46:41.417Z,16.77
2023-04-10T14:49:11.914Z,16.87
2023-04-10T14:51:40.130Z,16.66
2023-04-10T14:54:09.513Z,16.69
2023-04-10T14:56:37.644Z,16.55
2023-04-10T14:59:05.631Z,16.45
2023-04-10T15:01:34.015Z,16.63
2023-04-10T15:04:02.466Z,16.83
2023-04-10T15:06:32.470Z,16.88
2023-04-10T15:09:00.545Z,16.95
2023-04-10T15:11:29.856Z,16.77
2023-04-10T15:14:02.168Z,16.92
2023-04-10T15:16:30.915Z,16.55
2023-04-10T15:18:58.942Z,16.62
2023-04-10T15:21:27.503Z,16.77
2023-04-10T15:24:01.913Z,16.62
2023-04-10T15:26:31.322Z,16.77
2023-04-10T15:28:59.454Z,16.66
2023-04-10T15:31:27.694Z,16.56
2023-04-10T15:33:55.813Z,16.68
2023-04-10T15:36:23.842Z,16.85
2023-04-10T15:38:51.790Z,16.97
2023-04-10T15:41:20.247Z,17.61
2023-04-10T15:43:50.247Z,17.65
2023-04-10T15:46:19.155Z,17.85
2023-04-10T15:48:47.270Z,18.23
2023-04-10T15:51:15.413Z,18.69
2023-04-10T15:53:43.481Z,18.24
2023-04-10T15:56:11.650Z,17.91
2023-04-10T15:58:39.748Z,17.97
2023-04-10T16:01:10.432Z,18.27
2023-04-10T16:03:38.769Z,18.06
2023-04-10T16:06:08.400Z,18.16
2023-04-10T16:08:36.339Z,17.87
2023-04-10T16:11:04.529Z,17.81
2023-04-10T16:13:32.627Z,17.50
2023-04-10T16:16:01.121Z,17.48
2023-04-10T16:18:30.647Z,17.70
2023-04-10T16:20:58.663Z,17.21
2023-04-10T16:23:26.793Z,17.18
2023-04-10T16:25:54.760Z,17.29
2023-04-10T16:28:22.915Z,17.46
2023-04-10T16:30:50.902Z,17.17
2023-04-10T16:33:20.976Z,17.03
2023-04-10T16:35:51.832Z,17.07
2023-04-10T16:38:19.938Z,17.15
2023-04-10T16:40:48.021Z,17.25
2023-04-10T16:43:16.000Z,17.16
2023-04-10T16:45:43.956Z,17.02
2023-04-10T16:48:11.958Z,17.18
2023-04-10T16:50:39.951Z,17.34
2023-04-10T16:53:17.769Z,17.20
2023-04-10T16:55:46.027Z,17.20
2023-04-10T16:58:13.972Z,17.08
2023-04-10T17:00:42.080Z,16.86
2023-04-10T17:03:10.129Z,16.81
2023-04-10T17:05:38.456Z,16.85
2023-04-10T17:08:06.790Z,16.66
2023-04-10T17:10:36.189Z,16.34
2023-04-10T17:13:04.134Z,16.24
2023-04-10T17:15:32.134Z,15.94
2023-04-10T17:18:00.372Z,15.77
2023-04-10T17:20:28.490Z,15.62
2023-04-10T17:22:56.634Z,15.56
2023-04-10T17:25:24.680Z,15.38
2023-04-10T17:27:54.332Z,15.35
2023-04-10T17:30:22.391Z,15.24
2023-04-10T17:32:50.483Z,15.10
2023-04-10T17:35:18.557Z,15.12
2023-04-10T17:37:46.480Z,15.04
2023-04-10T17:40:14.803Z,14.89
2023-04-10T17:42:42.769Z,14.78
2023-04-10T17:45:13.531Z,14.69
2023-04-10T17:47:41.523Z,14.69
2023-04-10T17:50:10.800Z,14.64
2023-04-10T17:52:39.086Z,14.52
2023-04-10T17:55:08.486Z,14.46
2023-04-10T17:57:36.402Z,14.38
2023-04-10T18:00:09.526Z,14.38
2023-04-10T18:02:38.953Z,14.34
2023-04-10T18:05:08.417Z,14.15
2023-04-10T18:07:36.327Z,14.11
2023-04-10T18:10:04.289Z,14.02
2023-04-10T18:12:32.252Z,14.11
2023-04-10T18:15:00.312Z,14.11
2023-04-10T18:17:28.533Z,13.99
2023-04-10T18:19:57.990Z,13.96
2023-04-10T18:22:25.902Z,13.95
2023-04-10T18:24:54.902Z,14.01
2023-04-10T18:27:22.892Z,13.91
2023-04-10T18:29:50.837Z,13.88
2023-04-10T18:32:18.875Z,13.84
2023-04-10T18:34:46.782Z,13.83
2023-04-10T18:37:16.075Z,13.84
2023-04-10T18:39:45.408Z,13.80
2023-04-10T18:42:13.321Z,13.78
2023-04-10T18:44:41.206Z,13.72
2023-04-10T18:47:10.967Z,13.75
2023-04-10T18:49:39.120Z,13.64
2023-04-10T18:52:07.462Z,13.76
2023-04-10T18:54:37.821Z,13.68
2023-04-10T18:57:07.212Z,13.64
2023-04-10T18:59:35.130Z,13.60
2023-04-10T19:02:03.337Z,13.55
2023-04-10T19:04:31.415Z,13.50
2023-04-10T19:06:59.474Z,13.58
2023-04-10T19:09:27.545Z,13.51
2023-04-10T19:11:57.890Z,13.60
2023-04-10T19:14:25.913Z,13.51
2023-04-10T19:16:53.861Z,13.59
2023-04-10T19:19:21.846Z,13.55
2023-04-10T19:21:50.236Z,13.45
2023-04-10T19:24:18.236Z,13.43
2023-04-10T19:26:46.242Z,13.38
2023-04-10T19:29:15.528Z,13.32
2023-04-10T19:31:43.487Z,13.29
2023-04-10T19:34:12.386Z,13.28
2023-04-10T19:36:41.255Z,13.20
2023-04-10T19:39:09.472Z,13.30
2023-04-10T19:41:41.806Z,13.18
2023-04-10T19:44:10.392Z,13.11
2023-04-10T19:46:39.754Z,13.08
2023-04-10T19:49:07.937Z,13.16
2023-04-10T19:51:36.036Z,13.18
2023-04-10T19:54:03.907Z,13.13
2023-04-10T19:56:31.819Z,13.16
2023-04-10T19:58:59.935Z,13.21
2023-04-10T20:01:28.055Z,13.12
2023-04-10T20:03:57.646Z,13.10
2023-04-10T20:06:27.046Z,13.14
2023-04-10T20:08:55.334Z,13.06
2023-04-10T20:11:24.666Z,12.98
2023-04-10T20:13:53.052Z,13.05
2023-04-10T20:16:21.031Z,13.01
2023-04-10T20:18:49.011Z,13.05
2023-04-10T20:21:18.335Z,13.03
2023-04-10T20:23:46.257Z,13.02
2023-04-10T20:26:14.509Z,12.93
2023-04-10T20:28:42.460Z,12.90
2023-04-10T20:31:11.677Z,12.94
2023-04-10T20:33:39.605Z,12.92
2023-04-10T20:36:08.346Z,12.91
2023-04-10T20:38:38.221Z,12.88
2023-04-10T20:41:06.628Z,12.89
2023-04-10T20:43:34.511Z,12.85
2023-04-10T20:46:05.197Z,12.87
2023-04-10T20:48:33.378Z,12.83
2023-04-10T20:51:01.272Z,12.79
2023-04-10T20:53:30.084Z,12.76
2023-04-10T20:55:59.556Z,12.70
2023-04-10T20:58:27.535Z,12.78
2023-04-10T21:00:56.529Z,12.73
2023-04-10T21:03:24.813Z,12.66
2023-04-10T21:05:53.923Z,12.60
2023-04-10T21:08:22.103Z,12.65
2023-04-10T21:10:51.171Z,12.70
2023-04-10T21:13:20.488Z,12.60
2023-04-10T21:15:50.282Z,12.55
2023-04-10T21:18:18.297Z,12.57
2023-04-10T21:20:46.224Z,12.63
2023-04-10T21:23:14.111Z,12.61
2023-04-10T21:25:42.036Z,12.63
2023-04-10T21:28:10.038Z,12.57
2023-04-10T21:30:39.361Z,12.50
2023-04-10T21:33:07.292Z,12.50
2023-04-10T21:35:35.489Z,12.49
2023-04-10T21:38:03.444Z,12.44
2023-04-10T21:40:34.162Z,12.55
2023-04-10T21:43:02.700Z,12.48
2023-04-10T21:45:31.399Z,12.43
2023-04-10T21:48:00.900Z,12.46
2023-04-10T21:50:28.828Z,12.47
2023-04-10T21:52:56.797Z,12.54
2023-04-10T21:55:24.687Z,12.48
2023-04-10T21:57:52.717Z,12.42
2023-04-10T22:00:22.549Z,12.40
2023-04-10T22:02:52.035Z,12.31
2023-04-10T22:05:22.545Z,12.41
2023-04-10T22:07:50.677Z,12.31
2023-04-10T22:10:18.849Z,12.31
2023-04-10T22:12:48.482Z,12.25
2023-04-10T22:15:16.890Z,12.25
2023-04-10T22:17:44.819Z,12.23
2023-04-10T22:20:12.982Z,12.22
2023-04-10T22:22:42.380Z,12.21
2023-04-10T22:25:10.696Z,12.23
2023-04-10T22:27:38.524Z,12.19
2023-04-10T22:30:09.674Z,12.21
2023-04-10T22:32:37.844Z,12.12
2023-04-10T22:35:07.585Z,12.19
2023-04-10T22:37:35.561Z,12.23
2023-04-10T22:40:06.286Z,12.14
2023-04-10T22:42:34.269Z,12.11
2023-04-10T22:45:02.753Z,12.09
2023-04-10T22:47:31.048Z,12.11
2023-04-10T22:49:59.372Z,12.05
2023-04-10T22:52:27.438Z,11.88
2023-04-10T22:54:55.335Z,11.93
2023-04-10T22:57:24.572Z,11.90
2023-04-10T22:59:52.579Z,11.77
2023-04-10T23:02:20.709Z,11.89
2023-04-10T23:04:48.735Z,11.89
2023-04-10T23:07:16.757Z,11.77
2023-04-10T23:09:44.638Z,11.71
2023-04-10T23:12:12.604Z,11.77
2023-04-10T23:14:41.910Z,11.73
2023-04-10T23:17:09.903Z,11.64
2023-04-10T23:19:37.790Z,11.71
2023-04-10T23:22:05.936Z,11.75
2023-04-10T23:24:33.822Z,11.68
2023-04-10T23:27:01.709Z,11.79
2023-04-10T23:29:29.649Z,11.72
2023-04-10T23:31:58.899Z,11.65
2023-04-10T23:34:27.480Z,11.64
2023-04-10T23:36:55.794Z,11.68
2023-04-10T23:39:23.761Z,11.57
2023-04-10T23:41:51.703Z,11.57
2023-04-10T23:44:19.652Z,11.60
2023-04-10T23:46:48.238Z,11.62
2023-04-10T23:49:18.045Z,11.60
2023-04-10T23:51:46.574Z,11.47
2023-04-10T23:54:14.646Z,11.40
2023-04-10T23:56:42.732Z,11.37
2023-04-10T23:59:10.708Z,11.45
